sensor_id;sensor_type;location;lat;lon;timestamp;P1;durP1;ratioP1;P2;durP2;ratioP2
8927;SDS011;4499;48.304;11.902;2022-09-09T00:02:01;3.23;;;1.50;;
8927;SDS011;4499;48.304;11.902;2022-09-09T00:04:45;2.33;;;1.50;;
8927;SDS011;4499;48.304;11.902;2022-09-09T00:07:21;3.10;;;1.60;;
8927;SDS011;4499;48.304;11.902;2022-09-09T00:10:00;2.03;;;1.70;;
8927;SDS011;4499;48.304;11.902;2022-09-09T00:12:36;6.17;;;1.77;;
8927;SDS011;4499;48.304;11.902;2022-09-09T00:15:11;3.13;;;1.77;;
8927;SDS011;4499;48.304;11.902;2022-09-09T00:17:43;4.50;;;1.80;;
8927;SDS011;4499;48.304;11.902;2022-09-09T00:20:21;4.17;;;1.80;;
8927;SDS011;4499;48.304;11.902;2022-09-09T00:22:55;2.80;;;1.77;;
8927;SDS011;4499;48.304;11.902;2022-09-09T00:25:28;2.47;;;1.87;;
8927;SDS011;4499;48.304;11.902;2022-09-09T00:28:04;2.37;;;1.90;;
8927;SDS011;4499;48.304;11.902;2022-09-09T00:30:45;4.10;;;2.07;;
8927;SDS011;4499;48.304;11.902;2022-09-09T00:33:15;2.97;;;2.13;;
8927;SDS011;4499;48.304;11.902;2022-09-09T00:35:49;4.47;;;1.97;;
8927;SDS011;4499;48.304;11.902;2022-09-09T00:38:22;3.20;;;1.80;;
8927;SDS011;4499;48.304;11.902;2022-09-09T00:40:56;2.70;;;1.80;;
8927;SDS011;4499;48.304;11.902;2022-09-09T00:43:32;4.23;;;2.03;;
8927;SDS011;4499;48.304;11.902;2022-09-09T00:49:01;3.93;;;1.80;;
8927;SDS011;4499;48.304;11.902;2022-09-09T00:51:41;1.87;;;1.60;;
8927;SDS011;4499;48.304;11.902;2022-09-09T00:54:26;2.90;;;1.60;;
8927;SDS011;4499;48.304;11.902;2022-09-09T00:57:03;3.07;;;1.57;;
8927;SDS011;4499;48.304;11.902;2022-09-09T00:59:45;2.90;;;1.60;;
8927;SDS011;4499;48.304;11.902;2022-09-09T01:02:21;2.30;;;1.63;;
8927;SDS011;4499;48.304;11.902;2022-09-09T01:04:59;4.70;;;1.60;;
8927;SDS011;4499;48.304;11.902;2022-09-09T01:07:33;3.77;;;1.67;;
8927;SDS011;4499;48.304;11.902;2022-09-09T01:10:03;3.30;;;1.60;;
8927;SDS011;4499;48.304;11.902;2022-09-09T01:12:40;4.70;;;1.57;;
8927;SDS011;4499;48.304;11.902;2022-09-09T01:15:10;3.90;;;1.70;;
8927;SDS011;4499;48.304;11.902;2022-09-09T01:17:46;2.40;;;1.47;;
8927;SDS011;4499;48.304;11.902;2022-09-09T01:20:20;3.10;;;1.60;;
8927;SDS011;4499;48.304;11.902;2022-09-09T01:26:14;3.83;;;1.70;;
8927;SDS011;4499;48.304;11.902;2022-09-09T01:28:47;4.10;;;1.80;;
8927;SDS011;4499;48.304;11.902;2022-09-09T01:31:19;6.10;;;1.90;;
8927;SDS011;4499;48.304;11.902;2022-09-09T01:33:50;2.43;;;1.77;;
8927;SDS011;4499;48.304;11.902;2022-09-09T01:36:20;2.50;;;1.70;;
8927;SDS011;4499;48.304;11.902;2022-09-09T01:38:53;3.97;;;1.67;;
8927;SDS011;4499;48.304;11.902;2022-09-09T01:41:23;2.40;;;1.67;;
8927;SDS011;4499;48.304;11.902;2022-09-09T01:43:52;1.77;;;1.40;;
8927;SDS011;4499;48.304;11.902;2022-09-09T01:46:22;2.10;;;1.70;;
8927;SDS011;4499;48.304;11.902;2022-09-09T01:48:50;4.80;;;1.77;;
8927;SDS011;4499;48.304;11.902;2022-09-09T01:51:19;3.53;;;1.67;;
8927;SDS011;4499;48.304;11.902;2022-09-09T01:53:47;1.77;;;1.50;;
8927;SDS011;4499;48.304;11.902;2022-09-09T01:56:19;2.60;;;1.53;;
8927;SDS011;4499;48.304;11.902;2022-09-09T01:59:02;3.80;;;1.57;;
8927;SDS011;4499;48.304;11.902;2022-09-09T02:01:41;5.13;;;1.63;;
8927;SDS011;4499;48.304;11.902;2022-09-09T02:04:25;2.77;;;1.53;;
8927;SDS011;4499;48.304;11.902;2022-09-09T02:07:03;3.40;;;1.83;;
8927;SDS011;4499;48.304;11.902;2022-09-09T02:09:38;2.70;;;1.60;;
8927;SDS011;4499;48.304;11.902;2022-09-09T02:12:11;4.10;;;1.70;;
8927;SDS011;4499;48.304;11.902;2022-09-09T02:14:46;1.63;;;1.47;;
8927;SDS011;4499;48.304;11.902;2022-09-09T02:17:18;2.23;;;1.57;;
8927;SDS011;4499;48.304;11.902;2022-09-09T02:19:51;3.10;;;1.57;;
8927;SDS011;4499;48.304;11.902;2022-09-09T02:22:24;3.30;;;1.60;;
8927;SDS011;4499;48.304;11.902;2022-09-09T02:24:56;1.63;;;1.40;;
8927;SDS011;4499;48.304;11.902;2022-09-09T02:27:29;4.13;;;1.60;;
8927;SDS011;4499;48.304;11.902;2022-09-09T02:29:57;2.57;;;1.60;;
8927;SDS011;4499;48.304;11.902;2022-09-09T02:32:28;3.13;;;1.60;;
8927;SDS011;4499;48.304;11.902;2022-09-09T02:35:00;1.63;;;1.53;;
8927;SDS011;4499;48.304;11.902;2022-09-09T02:37:34;2.57;;;1.80;;
8927;SDS011;4499;48.304;11.902;2022-09-09T02:40:06;2.03;;;1.60;;
8927;SDS011;4499;48.304;11.902;2022-09-09T02:42:40;3.17;;;1.80;;
8927;SDS011;4499;48.304;11.902;2022-09-09T02:45:09;2.77;;;1.63;;
8927;SDS011;4499;48.304;11.902;2022-09-09T02:47:41;7.63;;;1.90;;
8927;SDS011;4499;48.304;11.902;2022-09-09T02:50:19;3.87;;;1.80;;
8927;SDS011;4499;48.304;11.902;2022-09-09T02:52:55;2.00;;;1.50;;
8927;SDS011;4499;48.304;11.902;2022-09-09T02:55:37;3.70;;;1.70;;
8927;SDS011;4499;48.304;11.902;2022-09-09T02:58:09;3.53;;;1.47;;
8927;SDS011;4499;48.304;11.902;2022-09-09T03:00:43;2.60;;;1.47;;
8927;SDS011;4499;48.304;11.902;2022-09-09T03:03:13;2.63;;;1.60;;
8927;SDS011;4499;48.304;11.902;2022-09-09T03:05:42;3.23;;;1.60;;
8927;SDS011;4499;48.304;11.902;2022-09-09T03:08:11;2.40;;;1.60;;
8927;SDS011;4499;48.304;11.902;2022-09-09T03:10:40;3.73;;;1.50;;
8927;SDS011;4499;48.304;11.902;2022-09-09T03:13:09;2.83;;;1.50;;
8927;SDS011;4499;48.304;11.902;2022-09-09T03:15:38;1.97;;;1.30;;
8927;SDS011;4499;48.304;11.902;2022-09-09T03:18:06;2.43;;;1.60;;
8927;SDS011;4499;48.304;11.902;2022-09-09T03:20:34;2.83;;;1.57;;
8927;SDS011;4499;48.304;11.902;2022-09-09T03:23:02;3.07;;;1.60;;
8927;SDS011;4499;48.304;11.902;2022-09-09T03:25:30;2.83;;;1.50;;
8927;SDS011;4499;48.304;11.902;2022-09-09T03:27:59;2.87;;;1.53;;
8927;SDS011;4499;48.304;11.902;2022-09-09T03:30:29;3.07;;;1.60;;
8927;SDS011;4499;48.304;11.902;2022-09-09T03:32:57;2.40;;;1.67;;
8927;SDS011;4499;48.304;11.902;2022-09-09T03:35:25;2.33;;;1.50;;
8927;SDS011;4499;48.304;11.902;2022-09-09T03:37:53;2.70;;;1.77;;
8927;SDS011;4499;48.304;11.902;2022-09-09T03:40:22;6.80;;;1.83;;
8927;SDS011;4499;48.304;11.902;2022-09-09T03:42:50;3.27;;;1.60;;
8927;SDS011;4499;48.304;11.902;2022-09-09T03:45:18;3.43;;;1.47;;
8927;SDS011;4499;48.304;11.902;2022-09-09T03:47:48;7.00;;;1.80;;
8927;SDS011;4499;48.304;11.902;2022-09-09T03:50:16;2.57;;;1.63;;
8927;SDS011;4499;48.304;11.902;2022-09-09T03:52:44;3.73;;;1.70;;
8927;SDS011;4499;48.304;11.902;2022-09-09T03:55:12;3.20;;;1.70;;
8927;SDS011;4499;48.304;11.902;2022-09-09T03:57:41;6.50;;;2.07;;
8927;SDS011;4499;48.304;11.902;2022-09-09T04:00:09;3.97;;;1.70;;
8927;SDS011;4499;48.304;11.902;2022-09-09T04:02:38;1.77;;;1.60;;
8927;SDS011;4499;48.304;11.902;2022-09-09T04:05:07;4.03;;;1.70;;
8927;SDS011;4499;48.304;11.902;2022-09-09T04:07:36;4.70;;;1.90;;
8927;SDS011;4499;48.304;11.902;2022-09-09T04:10:04;3.00;;;1.73;;
8927;SDS011;4499;48.304;11.902;2022-09-09T04:12:33;2.80;;;1.80;;
8927;SDS011;4499;48.304;11.902;2022-09-09T04:15:02;3.90;;;1.97;;
8927;SDS011;4499;48.304;11.902;2022-09-09T04:17:30;2.07;;;1.67;;
8927;SDS011;4499;48.304;11.902;2022-09-09T04:19:59;3.20;;;1.77;;
8927;SDS011;4499;48.304;11.902;2022-09-09T04:22:29;2.27;;;1.60;;
8927;SDS011;4499;48.304;11.902;2022-09-09T04:24:58;5.27;;;1.80;;
8927;SDS011;4499;48.304;11.902;2022-09-09T04:27:26;2.47;;;1.70;;
8927;SDS011;4499;48.304;11.902;2022-09-09T04:29:54;2.70;;;1.77;;
8927;SDS011;4499;48.304;11.902;2022-09-09T04:32:22;6.83;;;1.57;;
8927;SDS011;4499;48.304;11.902;2022-09-09T04:34:53;3.20;;;1.70;;
8927;SDS011;4499;48.304;11.902;2022-09-09T04:37:21;2.67;;;1.70;;
8927;SDS011;4499;48.304;11.902;2022-09-09T04:39:50;2.30;;;1.83;;
8927;SDS011;4499;48.304;11.902;2022-09-09T04:42:18;4.30;;;1.60;;
8927;SDS011;4499;48.304;11.902;2022-09-09T04:44:46;5.53;;;1.87;;
8927;SDS011;4499;48.304;11.902;2022-09-09T04:47:15;4.03;;;1.60;;
8927;SDS011;4499;48.304;11.902;2022-09-09T04:49:42;6.60;;;1.97;;
8927;SDS011;4499;48.304;11.902;2022-09-09T04:52:10;2.23;;;1.50;;
8927;SDS011;4499;48.304;11.902;2022-09-09T04:54:38;4.53;;;1.97;;
8927;SDS011;4499;48.304;11.902;2022-09-09T04:57:09;5.07;;;1.83;;
8927;SDS011;4499;48.304;11.902;2022-09-09T04:59:43;4.53;;;2.00;;
8927;SDS011;4499;48.304;11.902;2022-09-09T05:02:12;4.17;;;1.83;;
8927;SDS011;4499;48.304;11.902;2022-09-09T05:04:40;3.73;;;1.80;;
8927;SDS011;4499;48.304;11.902;2022-09-09T05:07:08;3.10;;;1.70;;
8927;SDS011;4499;48.304;11.902;2022-09-09T05:09:36;5.30;;;1.80;;
8927;SDS011;4499;48.304;11.902;2022-09-09T05:12:04;4.37;;;1.90;;
8927;SDS011;4499;48.304;11.902;2022-09-09T05:14:34;4.90;;;1.80;;
8927;SDS011;4499;48.304;11.902;2022-09-09T05:17:03;2.03;;;1.57;;
8927;SDS011;4499;48.304;11.902;2022-09-09T05:19:31;5.60;;;1.93;;
8927;SDS011;4499;48.304;11.902;2022-09-09T05:21:59;4.07;;;2.10;;
8927;SDS011;4499;48.304;11.902;2022-09-09T05:24:28;2.57;;;1.93;;
8927;SDS011;4499;48.304;11.902;2022-09-09T05:26:59;5.20;;;2.37;;
8927;SDS011;4499;48.304;11.902;2022-09-09T05:29:28;5.33;;;2.50;;
8927;SDS011;4499;48.304;11.902;2022-09-09T05:32:01;4.87;;;2.20;;
8927;SDS011;4499;48.304;11.902;2022-09-09T05:34:29;4.10;;;1.60;;
8927;SDS011;4499;48.304;11.902;2022-09-09T05:36:57;3.40;;;1.50;;
8927;SDS011;4499;48.304;11.902;2022-09-09T05:39:25;3.07;;;1.77;;
8927;SDS011;4499;48.304;11.902;2022-09-09T05:41:53;4.17;;;1.90;;
8927;SDS011;4499;48.304;11.902;2022-09-09T05:44:21;3.90;;;1.70;;
8927;SDS011;4499;48.304;11.902;2022-09-09T05:46:53;3.60;;;1.60;;
8927;SDS011;4499;48.304;11.902;2022-09-09T05:49:23;5.43;;;1.90;;
8927;SDS011;4499;48.304;11.902;2022-09-09T05:51:51;2.43;;;1.60;;
8927;SDS011;4499;48.304;11.902;2022-09-09T05:54:20;3.47;;;1.93;;
8927;SDS011;4499;48.304;11.902;2022-09-09T05:56:48;2.90;;;1.87;;
8927;SDS011;4499;48.304;11.902;2022-09-09T05:59:19;4.03;;;1.83;;
8927;SDS011;4499;48.304;11.902;2022-09-09T06:01:49;4.30;;;1.63;;
8927;SDS011;4499;48.304;11.902;2022-09-09T06:04:17;3.93;;;1.60;;
8927;SDS011;4499;48.304;11.902;2022-09-09T06:06:50;4.57;;;2.10;;
8927;SDS011;4499;48.304;11.902;2022-09-09T06:09:17;4.10;;;1.70;;
8927;SDS011;4499;48.304;11.902;2022-09-09T06:11:46;5.47;;;1.87;;
8927;SDS011;4499;48.304;11.902;2022-09-09T06:14:14;5.03;;;1.90;;
8927;SDS011;4499;48.304;11.902;2022-09-09T06:16:44;2.23;;;1.60;;
8927;SDS011;4499;48.304;11.902;2022-09-09T06:19:12;4.77;;;1.73;;
8927;SDS011;4499;48.304;11.902;2022-09-09T06:21:41;2.00;;;1.60;;
8927;SDS011;4499;48.304;11.902;2022-09-09T06:24:12;3.20;;;1.60;;
8927;SDS011;4499;48.304;11.902;2022-09-09T06:26:43;2.33;;;1.57;;
8927;SDS011;4499;48.304;11.902;2022-09-09T06:29:11;6.17;;;1.80;;
8927;SDS011;4499;48.304;11.902;2022-09-09T06:31:44;6.67;;;1.70;;
8927;SDS011;4499;48.304;11.902;2022-09-09T06:34:14;4.07;;;1.77;;
8927;SDS011;4499;48.304;11.902;2022-09-09T06:36:42;8.40;;;1.80;;
8927;SDS011;4499;48.304;11.902;2022-09-09T06:39:13;3.20;;;1.80;;
8927;SDS011;4499;48.304;11.902;2022-09-09T06:41:41;2.33;;;1.87;;
8927;SDS011;4499;48.304;11.902;2022-09-09T06:44:10;3.73;;;1.40;;
8927;SDS011;4499;48.304;11.902;2022-09-09T06:46:39;3.73;;;1.60;;
8927;SDS011;4499;48.304;11.902;2022-09-09T06:49:07;8.10;;;1.90;;
8927;SDS011;4499;48.304;11.902;2022-09-09T06:51:36;3.93;;;1.60;;
8927;SDS011;4499;48.304;11.902;2022-09-09T06:54:08;5.33;;;1.50;;
8927;SDS011;4499;48.304;11.902;2022-09-09T06:56:40;2.20;;;1.50;;
8927;SDS011;4499;48.304;11.902;2022-09-09T06:59:09;2.87;;;1.70;;
8927;SDS011;4499;48.304;11.902;2022-09-09T07:01:38;4.10;;;1.43;;
8927;SDS011;4499;48.304;11.902;2022-09-09T07:04:08;3.27;;;1.57;;
8927;SDS011;4499;48.304;11.902;2022-09-09T07:06:37;2.90;;;1.47;;
8927;SDS011;4499;48.304;11.902;2022-09-09T07:09:08;2.30;;;1.50;;
8927;SDS011;4499;48.304;11.902;2022-09-09T07:11:39;3.57;;;1.60;;
8927;SDS011;4499;48.304;11.902;2022-09-09T07:14:09;3.13;;;1.30;;
8927;SDS011;4499;48.304;11.902;2022-09-09T07:16:40;3.87;;;1.57;;
8927;SDS011;4499;48.304;11.902;2022-09-09T07:19:08;4.40;;;1.60;;
8927;SDS011;4499;48.304;11.902;2022-09-09T07:21:36;4.97;;;2.00;;
8927;SDS011;4499;48.304;11.902;2022-09-09T07:24:06;6.13;;;1.90;;
8927;SDS011;4499;48.304;11.902;2022-09-09T07:26:36;3.63;;;1.40;;
8927;SDS011;4499;48.304;11.902;2022-09-09T07:29:07;3.10;;;1.40;;
8927;SDS011;4499;48.304;11.902;2022-09-09T07:31:35;2.93;;;1.60;;
8927;SDS011;4499;48.304;11.902;2022-09-09T07:34:06;3.97;;;1.40;;
8927;SDS011;4499;48.304;11.902;2022-09-09T07:36:35;2.90;;;1.60;;
8927;SDS011;4499;48.304;11.902;2022-09-09T07:39:05;2.33;;;1.40;;
8927;SDS011;4499;48.304;11.902;2022-09-09T07:41:34;4.67;;;1.50;;
8927;SDS011;4499;48.304;11.902;2022-09-09T07:44:06;4.80;;;1.83;;
8927;SDS011;4499;48.304;11.902;2022-09-09T07:46:35;5.17;;;2.00;;
8927;SDS011;4499;48.304;11.902;2022-09-09T07:49:06;5.30;;;2.00;;
8927;SDS011;4499;48.304;11.902;2022-09-09T07:51:35;3.10;;;2.10;;
8927;SDS011;4499;48.304;11.902;2022-09-09T07:54:05;5.90;;;2.87;;
8927;SDS011;4499;48.304;11.902;2022-09-09T07:56:35;4.73;;;2.63;;
8927;SDS011;4499;48.304;11.902;2022-09-09T07:59:07;3.87;;;2.73;;
8927;SDS011;4499;48.304;11.902;2022-09-09T08:01:37;6.03;;;2.60;;
8927;SDS011;4499;48.304;11.902;2022-09-09T08:04:07;5.60;;;2.80;;
8927;SDS011;4499;48.304;11.902;2022-09-09T08:06:42;4.67;;;2.47;;
8927;SDS011;4499;48.304;11.902;2022-09-09T08:09:12;3.77;;;2.50;;
8927;SDS011;4499;48.304;11.902;2022-09-09T08:11:41;8.50;;;2.60;;
8927;SDS011;4499;48.304;11.902;2022-09-09T08:14:11;4.40;;;2.60;;
8927;SDS011;4499;48.304;11.902;2022-09-09T08:16:40;2.73;;;2.30;;
8927;SDS011;4499;48.304;11.902;2022-09-09T08:19:10;5.57;;;2.80;;
8927;SDS011;4499;48.304;11.902;2022-09-09T08:21:39;3.87;;;2.40;;
8927;SDS011;4499;48.304;11.902;2022-09-09T08:24:08;3.10;;;2.40;;
8927;SDS011;4499;48.304;11.902;2022-09-09T08:26:38;5.53;;;2.80;;
8927;SDS011;4499;48.304;11.902;2022-09-09T08:29:08;3.60;;;2.40;;
8927;SDS011;4499;48.304;11.902;2022-09-09T08:31:40;4.10;;;2.67;;
8927;SDS011;4499;48.304;11.902;2022-09-09T08:34:09;4.60;;;2.50;;
8927;SDS011;4499;48.304;11.902;2022-09-09T08:36:39;4.13;;;2.70;;
8927;SDS011;4499;48.304;11.902;2022-09-09T08:39:08;5.13;;;2.73;;
8927;SDS011;4499;48.304;11.902;2022-09-09T08:41:48;4.53;;;2.23;;
8927;SDS011;4499;48.304;11.902;2022-09-09T08:44:48;3.73;;;2.27;;
8927;SDS011;4499;48.304;11.902;2022-09-09T08:47:26;4.87;;;2.20;;
8927;SDS011;4499;48.304;11.902;2022-09-09T08:50:07;4.83;;;2.37;;
8927;SDS011;4499;48.304;11.902;2022-09-09T08:52:55;3.13;;;1.97;;
8927;SDS011;4499;48.304;11.902;2022-09-09T08:55:32;3.50;;;2.40;;
8927;SDS011;4499;48.304;11.902;2022-09-09T08:58:10;5.17;;;2.30;;
8927;SDS011;4499;48.304;11.902;2022-09-09T09:00:44;4.80;;;2.40;;
8927;SDS011;4499;48.304;11.902;2022-09-09T09:03:30;3.63;;;2.13;;
8927;SDS011;4499;48.304;11.902;2022-09-09T09:06:11;3.00;;;1.97;;
8927;SDS011;4499;48.304;11.902;2022-09-09T09:08:52;3.63;;;1.97;;
8927;SDS011;4499;48.304;11.902;2022-09-09T09:11:33;3.30;;;2.00;;
8927;SDS011;4499;48.304;11.902;2022-09-09T09:14:07;3.47;;;1.90;;
8927;SDS011;4499;48.304;11.902;2022-09-09T09:16:43;4.53;;;2.17;;
8927;SDS011;4499;48.304;11.902;2022-09-09T09:19:21;3.73;;;2.00;;
8927;SDS011;4499;48.304;11.902;2022-09-09T09:21:53;4.47;;;2.20;;
8927;SDS011;4499;48.304;11.902;2022-09-09T09:24:26;5.07;;;2.30;;
8927;SDS011;4499;48.304;11.902;2022-09-09T09:27:09;4.53;;;2.53;;
8927;SDS011;4499;48.304;11.902;2022-09-09T09:29:41;7.80;;;2.87;;
8927;SDS011;4499;48.304;11.902;2022-09-09T09:32:33;5.43;;;2.90;;
8927;SDS011;4499;48.304;11.902;2022-09-09T09:35:09;4.03;;;2.70;;
8927;SDS011;4499;48.304;11.902;2022-09-09T09:37:46;7.60;;;3.00;;
8927;SDS011;4499;48.304;11.902;2022-09-09T09:40:35;8.50;;;3.27;;
8927;SDS011;4499;48.304;11.902;2022-09-09T09:43:03;5.67;;;2.97;;
8927;SDS011;4499;48.304;11.902;2022-09-09T09:45:35;4.03;;;2.50;;
8927;SDS011;4499;48.304;11.902;2022-09-09T09:48:31;4.70;;;2.83;;
8927;SDS011;4499;48.304;11.902;2022-09-09T09:51:01;7.43;;;2.63;;
8927;SDS011;4499;48.304;11.902;2022-09-09T09:53:36;4.40;;;2.60;;
8927;SDS011;4499;48.304;11.902;2022-09-09T09:56:08;6.27;;;3.00;;
8927;SDS011;4499;48.304;11.902;2022-09-09T09:58:47;7.90;;;3.13;;
8927;SDS011;4499;48.304;11.902;2022-09-09T10:01:21;3.50;;;2.83;;
8927;SDS011;4499;48.304;11.902;2022-09-09T10:03:52;6.70;;;2.90;;
8927;SDS011;4499;48.304;11.902;2022-09-09T10:06:32;4.83;;;2.50;;
8927;SDS011;4499;48.304;11.902;2022-09-09T10:09:03;4.77;;;2.83;;
8927;SDS011;4499;48.304;11.902;2022-09-09T10:11:48;4.93;;;2.83;;
8927;SDS011;4499;48.304;11.902;2022-09-09T10:14:24;5.67;;;2.77;;
8927;SDS011;4499;48.304;11.902;2022-09-09T10:17:00;5.20;;;2.77;;
8927;SDS011;4499;48.304;11.902;2022-09-09T10:19:37;3.37;;;2.60;;
8927;SDS011;4499;48.304;11.902;2022-09-09T10:22:18;5.93;;;2.97;;
8927;SDS011;4499;48.304;11.902;2022-09-09T10:25:04;4.90;;;3.00;;
8927;SDS011;4499;48.304;11.902;2022-09-09T10:27:47;4.27;;;2.50;;
8927;SDS011;4499;48.304;11.902;2022-09-09T10:30:32;4.83;;;2.90;;
8927;SDS011;4499;48.304;11.902;2022-09-09T10:33:10;4.10;;;2.87;;
8927;SDS011;4499;48.304;11.902;2022-09-09T10:35:46;5.00;;;2.47;;
8927;SDS011;4499;48.304;11.902;2022-09-09T10:38:23;4.60;;;2.50;;
8927;SDS011;4499;48.304;11.902;2022-09-09T10:41:04;4.70;;;2.53;;
8927;SDS011;4499;48.304;11.902;2022-09-09T10:43:42;3.47;;;2.20;;
8927;SDS011;4499;48.304;11.902;2022-09-09T10:46:29;3.13;;;2.10;;
8927;SDS011;4499;48.304;11.902;2022-09-09T10:49:09;4.80;;;2.10;;
8927;SDS011;4499;48.304;11.902;2022-09-09T10:51:50;3.07;;;1.97;;
8927;SDS011;4499;48.304;11.902;2022-09-09T10:54:30;2.67;;;1.53;;
8927;SDS011;4499;48.304;11.902;2022-09-09T10:57:21;4.17;;;1.53;;
8927;SDS011;4499;48.304;11.902;2022-09-09T10:59:58;3.13;;;1.60;;
8927;SDS011;4499;48.304;11.902;2022-09-09T11:02:31;3.43;;;1.60;;
8927;SDS011;4499;48.304;11.902;2022-09-09T11:05:02;2.60;;;1.53;;
8927;SDS011;4499;48.304;11.902;2022-09-09T11:07:33;2.40;;;1.50;;
8927;SDS011;4499;48.304;11.902;2022-09-09T11:10:14;3.63;;;1.67;;
8927;SDS011;4499;48.304;11.902;2022-09-09T11:12:52;2.33;;;1.10;;
8927;SDS011;4499;48.304;11.902;2022-09-09T11:15:28;2.27;;;1.30;;
8927;SDS011;4499;48.304;11.902;2022-09-09T11:17:59;1.93;;;1.27;;
8927;SDS011;4499;48.304;11.902;2022-09-09T11:20:32;2.00;;;1.20;;
8927;SDS011;4499;48.304;11.902;2022-09-09T11:23:02;1.60;;;1.30;;
8927;SDS011;4499;48.304;11.902;2022-09-09T11:25:34;1.87;;;1.20;;
8927;SDS011;4499;48.304;11.902;2022-09-09T11:28:11;1.93;;;1.10;;
8927;SDS011;4499;48.304;11.902;2022-09-09T11:30:56;1.90;;;1.17;;
8927;SDS011;4499;48.304;11.902;2022-09-09T11:33:55;1.23;;;1.00;;
8927;SDS011;4499;48.304;11.902;2022-09-09T11:36:37;2.97;;;1.20;;
8927;SDS011;4499;48.304;11.902;2022-09-09T11:39:28;2.00;;;1.17;;
8927;SDS011;4499;48.304;11.902;2022-09-09T11:42:18;1.80;;;1.00;;
8927;SDS011;4499;48.304;11.902;2022-09-09T11:44:48;4.60;;;1.20;;
8927;SDS011;4499;48.304;11.902;2022-09-09T11:47:21;1.77;;;1.07;;
8927;SDS011;4499;48.304;11.902;2022-09-09T11:49:55;1.90;;;1.07;;
8927;SDS011;4499;48.304;11.902;2022-09-09T11:52:37;2.10;;;1.03;;
8927;SDS011;4499;48.304;11.902;2022-09-09T11:55:10;2.20;;;1.03;;
8927;SDS011;4499;48.304;11.902;2022-09-09T11:57:41;2.67;;;1.10;;
8927;SDS011;4499;48.304;11.902;2022-09-09T12:03:01;1.50;;;1.03;;
8927;SDS011;4499;48.304;11.902;2022-09-09T12:05:36;1.77;;;1.10;;
8927;SDS011;4499;48.304;11.902;2022-09-09T12:08:07;1.40;;;1.03;;
8927;SDS011;4499;48.304;11.902;2022-09-09T12:10:38;2.43;;;1.30;;
8927;SDS011;4499;48.304;11.902;2022-09-09T12:13:09;2.70;;;1.07;;
8927;SDS011;4499;48.304;11.902;2022-09-09T12:15:47;2.03;;;1.03;;
8927;SDS011;4499;48.304;11.902;2022-09-09T12:18:21;1.93;;;1.03;;
8927;SDS011;4499;48.304;11.902;2022-09-09T12:20:54;1.87;;;0.83;;
8927;SDS011;4499;48.304;11.902;2022-09-09T12:23:37;1.77;;;0.80;;
8927;SDS011;4499;48.304;11.902;2022-09-09T12:26:20;3.70;;;1.00;;
8927;SDS011;4499;48.304;11.902;2022-09-09T12:31:47;1.93;;;1.00;;
8927;SDS011;4499;48.304;11.902;2022-09-09T12:34:32;1.23;;;0.97;;
8927;SDS011;4499;48.304;11.902;2022-09-09T12:37:06;2.67;;;1.00;;
8927;SDS011;4499;48.304;11.902;2022-09-09T12:39:46;1.37;;;0.80;;
8927;SDS011;4499;48.304;11.902;2022-09-09T12:42:23;2.63;;;0.70;;
8927;SDS011;4499;48.304;11.902;2022-09-09T12:44:56;3.80;;;1.10;;
8927;SDS011;4499;48.304;11.902;2022-09-09T12:47:31;1.80;;;0.70;;
8927;SDS011;4499;48.304;11.902;2022-09-09T12:50:14;2.87;;;0.70;;
8927;SDS011;4499;48.304;11.902;2022-09-09T12:52:44;1.43;;;0.80;;
8927;SDS011;4499;48.304;11.902;2022-09-09T12:55:16;0.73;;;0.60;;
8927;SDS011;4499;48.304;11.902;2022-09-09T12:57:48;0.80;;;0.80;;
8927;SDS011;4499;48.304;11.902;2022-09-09T13:00:20;2.00;;;0.70;;
8927;SDS011;4499;48.304;11.902;2022-09-09T13:02:50;1.57;;;0.80;;
8927;SDS011;4499;48.304;11.902;2022-09-09T13:05:20;1.07;;;0.80;;
8927;SDS011;4499;48.304;11.902;2022-09-09T13:07:51;0.60;;;0.60;;
8927;SDS011;4499;48.304;11.902;2022-09-09T13:10:28;0.97;;;0.73;;
8927;SDS011;4499;48.304;11.902;2022-09-09T13:13:15;3.03;;;1.20;;
8927;SDS011;4499;48.304;11.902;2022-09-09T13:15:49;1.17;;;0.90;;
8927;SDS011;4499;48.304;11.902;2022-09-09T13:18:21;1.80;;;0.67;;
8927;SDS011;4499;48.304;11.902;2022-09-09T13:20:51;1.50;;;0.80;;
8927;SDS011;4499;48.304;11.902;2022-09-09T13:23:20;1.13;;;0.60;;
8927;SDS011;4499;48.304;11.902;2022-09-09T13:25:55;0.83;;;0.70;;
8927;SDS011;4499;48.304;11.902;2022-09-09T13:28:26;1.87;;;0.80;;
8927;SDS011;4499;48.304;11.902;2022-09-09T13:31:01;0.73;;;0.50;;
8927;SDS011;4499;48.304;11.902;2022-09-09T13:33:32;1.07;;;0.70;;
8927;SDS011;4499;48.304;11.902;2022-09-09T13:36:03;1.13;;;0.70;;
8927;SDS011;4499;48.304;11.902;2022-09-09T13:38:35;0.63;;;0.60;;
8927;SDS011;4499;48.304;11.902;2022-09-09T13:41:05;0.60;;;0.60;;
8927;SDS011;4499;48.304;11.902;2022-09-09T13:43:36;1.33;;;0.80;;
8927;SDS011;4499;48.304;11.902;2022-09-09T13:46:21;0.80;;;0.80;;
8927;SDS011;4499;48.304;11.902;2022-09-09T13:49:00;3.00;;;0.70;;
8927;SDS011;4499;48.304;11.902;2022-09-09T13:51:37;0.60;;;0.60;;
8927;SDS011;4499;48.304;11.902;2022-09-09T13:54:09;0.97;;;0.70;;
8927;SDS011;4499;48.304;11.902;2022-09-09T13:56:38;1.70;;;0.87;;
8927;SDS011;4499;48.304;11.902;2022-09-09T13:59:09;3.83;;;0.80;;
8927;SDS011;4499;48.304;11.902;2022-09-09T14:01:41;1.03;;;1.00;;
8927;SDS011;4499;48.304;11.902;2022-09-09T14:04:10;1.10;;;0.90;;
8927;SDS011;4499;48.304;11.902;2022-09-09T14:06:38;1.70;;;1.00;;
8927;SDS011;4499;48.304;11.902;2022-09-09T14:09:07;0.77;;;0.70;;
8927;SDS011;4499;48.304;11.902;2022-09-09T14:11:38;1.73;;;0.70;;
8927;SDS011;4499;48.304;11.902;2022-09-09T14:14:07;1.90;;;0.60;;
8927;SDS011;4499;48.304;11.902;2022-09-09T14:16:35;1.03;;;0.80;;
8927;SDS011;4499;48.304;11.902;2022-09-09T14:19:05;1.13;;;0.80;;
8927;SDS011;4499;48.304;11.902;2022-09-09T14:21:33;0.83;;;0.60;;
8927;SDS011;4499;48.304;11.902;2022-09-09T14:24:01;1.00;;;0.60;;
8927;SDS011;4499;48.304;11.902;2022-09-09T14:26:29;1.63;;;0.73;;
8927;SDS011;4499;48.304;11.902;2022-09-09T14:28:58;1.43;;;0.70;;
8927;SDS011;4499;48.304;11.902;2022-09-09T14:31:27;1.57;;;0.77;;
8927;SDS011;4499;48.304;11.902;2022-09-09T14:33:55;1.30;;;0.80;;
8927;SDS011;4499;48.304;11.902;2022-09-09T14:36:25;1.80;;;0.70;;
8927;SDS011;4499;48.304;11.902;2022-09-09T14:38:52;1.13;;;0.70;;
8927;SDS011;4499;48.304;11.902;2022-09-09T14:41:20;0.80;;;0.80;;
8927;SDS011;4499;48.304;11.902;2022-09-09T14:43:49;0.90;;;0.60;;
8927;SDS011;4499;48.304;11.902;2022-09-09T14:46:18;0.93;;;0.80;;
8927;SDS011;4499;48.304;11.902;2022-09-09T14:48:47;3.47;;;0.77;;
8927;SDS011;4499;48.304;11.902;2022-09-09T14:51:17;1.00;;;0.70;;
8927;SDS011;4499;48.304;11.902;2022-09-09T14:53:50;0.60;;;0.60;;
8927;SDS011;4499;48.304;11.902;2022-09-09T14:56:20;2.73;;;0.70;;
8927;SDS011;4499;48.304;11.902;2022-09-09T14:58:52;2.23;;;0.60;;
8927;SDS011;4499;48.304;11.902;2022-09-09T15:01:21;1.80;;;0.87;;
8927;SDS011;4499;48.304;11.902;2022-09-09T15:03:50;1.37;;;0.60;;
8927;SDS011;4499;48.304;11.902;2022-09-09T15:06:20;1.03;;;0.60;;
8927;SDS011;4499;48.304;11.902;2022-09-09T15:08:51;2.17;;;0.70;;
8927;SDS011;4499;48.304;11.902;2022-09-09T15:11:20;1.63;;;0.80;;
8927;SDS011;4499;48.304;11.902;2022-09-09T15:13:51;0.87;;;0.60;;
8927;SDS011;4499;48.304;11.902;2022-09-09T15:16:21;3.03;;;0.67;;
8927;SDS011;4499;48.304;11.902;2022-09-09T15:18:51;2.93;;;1.00;;
8927;SDS011;4499;48.304;11.902;2022-09-09T15:21:20;2.83;;;1.03;;
8927;SDS011;4499;48.304;11.902;2022-09-09T15:23:51;2.93;;;0.87;;
8927;SDS011;4499;48.304;11.902;2022-09-09T15:26:19;1.13;;;0.70;;
8927;SDS011;4499;48.304;11.902;2022-09-09T15:28:48;1.37;;;0.90;;
8927;SDS011;4499;48.304;11.902;2022-09-09T15:31:17;1.80;;;0.70;;
8927;SDS011;4499;48.304;11.902;2022-09-09T15:33:46;1.07;;;0.60;;
8927;SDS011;4499;48.304;11.902;2022-09-09T15:36:17;3.03;;;0.80;;
8927;SDS011;4499;48.304;11.902;2022-09-09T15:38:46;2.87;;;0.80;;
8927;SDS011;4499;48.304;11.902;2022-09-09T15:41:16;2.17;;;0.70;;
8927;SDS011;4499;48.304;11.902;2022-09-09T15:43:45;2.73;;;1.00;;
8927;SDS011;4499;48.304;11.902;2022-09-09T15:46:24;1.87;;;0.80;;